Time;durP1;ratioP1;P1;durP2;ratioP2;P2;SDS_P1;SDS_P2;PMS_P1;PMS_P2;Temp;Humidity;BMP_temperature;BMP_pressure;BME280_temperature;BME280_humidity;BME280_pressure;Samples;Min_cycle;Max_cycle;Signal;HPM_P1;HPM_P2
2022/07/10 00:00:33;;;;;;;12.30;11.07;;;;;;;15.77;100.00;63628.09;5038074;28;20214;-84
2022/07/10 00:03:00;;;;;;;13.65;12.35;;;;;;;15.79;100.00;63627.59;5041052;28;20189;-83
2022/07/10 00:05:29;;;;;;;15.00;12.77;;;;;;;15.68;100.00;63615.66;5039894;28;20548;-84
2022/07/10 00:07:56;;;;;;;13.38;12.07;;;;;;;15.73;100.00;63629.06;5030397;28;20210;-84
2022/07/10 00:10:24;;;;;;;13.20;11.95;;;;;;;15.76;100.00;63623.97;5020461;28;20198;-84
2022/07/10 00:12:52;;;;;;;12.52;11.23;;;;;;;15.60;100.00;63609.91;5038454;28;20229;-84
2022/07/10 00:15:20;;;;;;;13.05;11.85;;;;;;;15.67;100.00;63622.31;5023193;28;20210;-84
2022/07/10 00:17:47;;;;;;;12.90;11.60;;;;;;;15.68;100.00;63615.66;5022706;28;20218;-84
2022/07/10 00:20:15;;;;;;;12.07;10.95;;;;;;;15.68;100.00;63620.78;5031478;28;20202;-84
2022/07/10 00:22:44;;;;;;;11.88;10.68;;;;;;;15.62;100.00;63604.78;5020293;28;20192;-83
2022/07/10 00:25:12;;;;;;;12.40;11.25;;;;;;;15.40;100.00;63586.53;5019203;28;20205;-87
2022/07/10 00:27:39;;;;;;;11.05;10.05;;;;;;;15.43;100.00;63589.69;5019133;28;20254;-84
2022/07/10 00:30:08;;;;;;;12.30;11.10;;;;;;;15.54;100.00;63601.09;5019945;28;20200;-85
2022/07/10 00:32:35;;;;;;;12.30;11.10;;;;;;;15.60;100.00;63612.47;5021363;28;20231;-83
2022/07/10 00:35:02;;;;;;;11.93;10.88;;;;;;;15.54;100.00;63601.63;5032888;28;20254;-83
2022/07/10 00:37:29;;;;;;;13.10;11.43;;;;;;;15.34;100.00;63580.81;5040401;28;20254;-83
2022/07/10 00:39:58;;;;;;;12.68;11.40;;;;;;;15.25;100.00;63574.03;5028414;28;20186;-83
2022/07/10 00:42:24;;;;;;;12.85;11.65;;;;;;;15.45;100.00;63599.44;5036937;28;20253;-82
2022/07/10 00:44:51;;;;;;;12.48;11.18;;;;;;;15.38;100.00;63584.97;5033405;28;20269;-83
2022/07/10 00:47:19;;;;;;;11.75;10.35;;;;;;;15.12;100.00;63560.50;5033680;28;20228;-83
2022/07/10 00:49:47;;;;;;;11.98;10.88;;;;;;;15.43;100.00;63594.81;5035271;28;20199;-82
2022/07/10 00:52:16;;;;;;;11.85;10.65;;;;;;;15.43;100.00;63590.19;5034560;28;20237;-83
2022/07/10 00:54:44;;;;;;;12.77;11.63;;;;;;;15.34;100.00;63583.38;5025305;28;20258;-85
2022/07/10 00:57:15;;;;;;;12.70;11.38;;;;;;;15.31;100.00;63575.13;5031255;28;20253;-84
2022/07/10 00:59:42;;;;;;;11.77;10.57;;;;;;;15.21;100.00;63569.34;5013416;28;20234;-84
2022/07/10 01:02:11;;;;;;;12.30;11.13;;;;;;;15.16;100.00;63562.09;5023289;28;20246;-85
2022/07/10 01:04:38;;;;;;;11.98;10.77;;;;;;;15.15;100.00;63563.63;5034432;28;20198;-84
2022/07/10 01:07:06;;;;;;;12.80;11.60;;;;;;;15.15;100.00;63561.06;5024443;28;20561;-84
2022/07/10 01:09:33;;;;;;;13.75;11.80;;;;;;;15.07;100.00;63555.84;5014799;28;20200;-84
2022/07/10 01:12:01;;;;;;;11.40;10.25;;;;;;;15.19;100.00;63565.22;5032771;28;20234;-84
2022/07/10 01:14:31;;;;;;;11.75;10.55;;;;;;;15.15;100.00;63565.69;5037283;28;20187;-83
2022/07/10 01:16:58;;;;;;;13.60;10.43;;;;;;;15.29;100.00;63583.31;5034915;28;20233;-84
2022/07/10 01:19:25;;;;;;;10.90;9.80;;;;;;;15.01;100.00;63547.03;5031897;28;20194;-85
2022/07/10 01:21:54;;;;;;;11.07;9.93;;;;;;;15.13;100.00;63561.56;5018923;28;20235;-84
2022/07/10 01:24:21;;;;;;;10.95;9.93;;;;;;;15.21;100.00;63566.78;5011852;28;20202;-83
2022/07/10 01:26:48;;;;;;;11.93;10.73;;;;;;;15.20;100.00;63568.84;5026844;28;20217;-84
2022/07/10 01:29:15;;;;;;;11.52;10.40;;;;;;;15.25;100.00;63571.47;5031324;28;20199;-83
2022/07/10 01:31:42;;;;;;;10.63;9.50;;;;;;;15.32;100.00;63578.22;5031480;28;20225;-84
2022/07/10 01:34:10;;;;;;;10.48;9.57;;;;;;;15.02;100.00;63553.22;5031626;28;20250;-84
2022/07/10 01:36:38;;;;;;;11.27;10.20;;;;;;;15.37;100.00;63585.97;5033729;28;20230;-83
2022/07/10 01:39:08;;;;;;;10.18;9.25;;;;;;;15.38;100.00;63582.41;5035160;28;20186;-83
2022/07/10 01:41:38;;;;;;;10.45;9.45;;;;;;;15.15;100.00;63563.13;5035178;28;20217;-82
2022/07/10 01:44:05;;;;;;;10.60;9.60;;;;;;;15.20;100.00;63566.28;5020641;28;20205;-83
2022/07/10 01:46:32;;;;;;;13.30;9.82;;;;;;;15.28;100.00;63576.63;5030932;28;20226;-83
2022/07/10 01:48:58;;;;;;;10.20;9.20;;;;;;;15.19;100.00;63569.81;5034274;28;20222;-83
2022/07/10 01:51:25;;;;;;;10.35;9.45;;;;;;;15.28;100.00;63571.47;5036508;28;20241;-83
2022/07/10 01:53:52;;;;;;;9.35;8.65;;;;;;;15.30;100.00;63576.66;5029697;28;20290;-83
2022/07/10 01:56:21;;;;;;;10.68;9.68;;;;;;;15.12;100.00;63560.00;5033711;28;20264;-84
2022/07/10 01:58:48;;;;;;;13.43;8.88;;;;;;;15.26;100.00;63572.50;5032504;28;20187;-84
2022/07/10 02:01:15;;;;;;;9.68;8.80;;;;;;;15.24;100.00;63570.41;5029771;28;20218;-83
2022/07/10 02:06:26;;;;;;;10.63;9.32;;;;;;;14.98;100.00;63545.97;5024731;28;20228;-83
2022/07/10 02:08:54;;;;;;;11.30;9.57;;;;;;;15.20;100.00;63568.84;5035090;28;20195;-83
2022/07/10 02:11:22;;;;;;;11.60;9.65;;;;;;;15.15;100.00;63563.63;5024240;28;20218;-83
2022/07/10 02:13:50;;;;;;;10.32;9.32;;;;;;;15.09;100.00;63554.84;5030372;28;20566;-83
2022/07/10 02:16:17;;;;;;;10.18;9.27;;;;;;;15.01;100.00;63547.03;5029545;28;20389;-83
2022/07/10 02:18:44;;;;;;;9.93;9.02;;;;;;;15.04;100.00;63550.16;5030004;28;20262;-84
2022/07/10 02:21:11;;;;;;;10.05;9.15;;;;;;;14.88;100.00;63538.13;5030281;28;20545;-84
2022/07/10 02:23:40;;;;;;;10.30;9.40;;;;;;;14.79;100.00;63528.78;5030166;28;20227;-83
2022/07/10 02:26:07;;;;;;;10.95;9.85;;;;;;;15.12;100.00;63565.13;5012333;28;20230;-84
2022/07/10 02:28:36;;;;;;;13.07;10.38;;;;;;;15.15;100.00;63560.56;5020050;28;20210;-84
2022/07/10 02:31:03;;;;;;;10.65;9.55;;;;;;;15.18;100.00;63561.09;5021279;28;20219;-84
2022/07/10 02:33:29;;;;;;;10.65;9.65;;;;;;;15.00;100.00;63548.03;5031975;28;20234;-83
2022/07/10 02:35:56;;;;;;;11.57;10.00;;;;;;;14.96;100.00;63541.84;5030154;28;20228;-82
2022/07/10 02:38:23;;;;;;;10.00;9.10;;;;;;;14.71;100.00;63515.88;5022729;28;20191;-83
2022/07/10 02:40:50;;;;;;;10.10;9.15;;;;;;;14.69;100.00;63516.34;5028338;28;20429;-83
2022/07/10 02:43:18;;;;;;;11.20;9.90;;;;;;;14.84;100.00;63531.94;5029037;28;20370;-83
2022/07/10 02:45:46;;;;;;;9.82;9.02;;;;;;;14.94;100.00;63541.81;5028533;28;20221;-83
2022/07/10 02:48:15;;;;;;;10.82;9.88;;;;;;;14.80;100.00;63524.69;5010798;28;20199;-83
2022/07/10 02:50:42;;;;;;;10.57;9.57;;;;;;;15.04;100.00;63547.06;5023842;28;20230;-84
2022/07/10 02:53:09;;;;;;;10.95;10.00;;;;;;;14.60;100.00;63501.88;5030996;28;20230;-84
2022/07/10 02:55:36;;;;;;;10.40;9.45;;;;;;;14.95;100.00;63543.38;5028274;28;20226;-82
2022/07/10 02:58:03;;;;;;;10.20;8.55;;;;;;;14.93;100.00;63536.16;5029278;28;20250;-84
2022/07/10 03:00:30;;;;;;;10.55;9.45;;;;;;;14.94;100.00;63539.25;5029350;28;20206;-84
2022/07/10 03:02:59;;;;;;;11.25;9.52;;;;;;;14.51;100.00;63497.66;5029729;28;20210;-83
2022/07/10 03:05:26;;;;;;;14.25;9.70;;;;;;;14.96;100.00;63543.91;5028297;28;20275;-84
2022/07/10 03:07:53;;;;;;;11.43;10.15;;;;;;;14.80;100.00;63527.25;5017091;28;20218;-82
2022/07/10 03:10:20;;;;;;;12.00;10.65;;;;;;;15.15;100.00;63568.78;5017432;28;20211;-82
2022/07/10 03:12:47;;;;;;;13.45;9.52;;;;;;;15.10;100.00;63557.91;5030702;28;20562;-83
2022/07/10 03:15:15;;;;;;;11.43;10.32;;;;;;;15.06;100.00;63554.78;5015776;28;20195;-84
2022/07/10 03:17:42;;;;;;;11.85;10.68;;;;;;;14.98;100.00;63543.41;5011422;28;20245;-83
2022/07/10 03:20:11;;;;;;;10.95;9.63;;;;;;;15.10;100.00;63555.84;5028737;28;20209;-84
2022/07/10 03:22:38;;;;;;;12.30;10.18;;;;;;;15.14;100.00;63556.94;5029123;28;20226;-84
2022/07/10 03:25:06;;;;;;;12.18;10.10;;;;;;;15.14;100.00;63560.03;5012998;28;20195;-82
2022/07/10 03:27:33;;;;;;;11.68;10.32;;;;;;;15.24;100.00;63572.47;5013679;28;20340;-83
2022/07/10 03:30:01;;;;;;;10.57;9.48;;;;;;;15.31;100.00;63584.84;5029421;28;20195;-82
2022/07/10 03:32:27;;;;;;;10.70;9.65;;;;;;;15.26;100.00;63571.97;5026668;28;20289;-83
2022/07/10 03:34:55;;;;;;;11.90;10.32;;;;;;;15.43;100.00;63589.69;5033037;28;20195;-83
2022/07/10 03:37:23;;;;;;;11.55;10.35;;;;;;;15.46;100.00;63597.91;5033158;28;20222;-83
2022/07/10 03:39:50;;;;;;;10.77;9.80;;;;;;;15.46;100.00;63595.34;5034679;28;20209;-83
2022/07/10 03:42:17;;;;;;;10.57;9.40;;;;;;;15.47;100.00;63591.78;5027894;28;20294;-82
2022/07/10 03:44:52;;;;;;;11.57;10.38;;;;;;;15.39;100.00;63588.06;5018408;28;20199;-83
2022/07/10 03:47:23;;;;;;;11.05;9.93;;;;;;;15.44;100.00;63590.72;5027913;28;20225;-82
2022/07/10 03:49:51;;;;;;;10.75;9.75;;;;;;;15.44;100.00;63596.38;5037170;28;20198;-83
2022/07/10 03:52:28;;;;;;;12.18;10.02;;;;;;;15.57;100.00;63607.31;5036981;28;20226;-83
2022/07/10 03:54:57;;;;;;;11.30;10.20;;;;;;;15.61;100.00;63611.47;5035692;28;20214;-83
2022/07/10 04:00:14;;;;;;;13.15;10.35;;;;;;;15.73;100.00;63620.84;5035680;28;20233;-82
2022/07/10 04:02:48;;;;;;;10.30;9.25;;;;;;;15.77;100.00;63627.59;5035094;28;20206;-83
2022/07/10 04:05:16;;;;;;;10.05;9.15;;;;;;;15.80;100.00;63628.66;5032954;28;20205;-83
2022/07/10 04:07:43;;;;;;;9.50;8.50;;;;;;;15.63;100.00;63610.97;5034450;28;20219;-83
2022/07/10 04:10:15;;;;;;;9.73;8.85;;;;;;;15.88;100.00;63639.53;5032550;28;20205;-82
2022/07/10 04:12:44;;;;;;;9.27;8.48;;;;;;;15.73;100.00;63621.38;5035374;28;20241;-83
2022/07/10 04:15:13;;;;;;;8.93;8.10;;;;;;;15.99;100.00;63648.41;5033863;28;20507;-83
2022/07/10 04:17:40;;;;;;;11.25;8.60;;;;;;;15.87;100.00;63635.41;5029224;28;20199;-84
2022/07/10 04:20:08;;;;;;;8.68;7.93;;;;;;;15.82;100.00;63632.78;5033264;28;20269;-83
2022/07/10 04:22:38;;;;;;;9.15;8.20;;;;;;;15.94;100.00;63645.78;5033358;28;20195;-85
2022/07/10 04:25:06;;;;;;;8.85;7.78;;;;;;;16.02;100.00;63653.56;5032100;28;20530;-83
2022/07/10 04:27:35;;;;;;;10.75;7.95;;;;;;;16.16;100.00;63668.13;5027646;28;20210;-84
2022/07/10 04:30:02;;;;;;;12.77;7.97;;;;;;;16.20;100.00;63674.88;5032138;28;20206;-84
2022/07/10 04:32:29;;;;;;;10.85;7.80;;;;;;;16.03;100.00;63654.63;5028357;28;20241;-84
2022/07/10 04:34:57;;;;;;;8.95;8.10;;;;;;;16.35;100.00;63690.47;5034639;28;20198;-83
2022/07/10 04:37:24;;;;;;;8.32;7.38;;;;;;;16.08;100.00;63657.75;5032031;28;20276;-83
2022/07/10 04:39:51;;;;;;;8.02;7.32;;;;;;;16.13;100.00;63662.94;5029727;28;20198;-83
2022/07/10 04:42:18;;;;;;;7.57;6.95;;;;;;;15.97;100.00;63650.94;5030061;28;20210;-83
2022/07/10 04:44:47;;;;;;;7.80;7.20;;;;;;;16.00;100.00;63652.00;5028115;28;20210;-82
2022/07/10 04:47:14;;;;;;;8.02;7.28;;;;;;;16.26;100.00;63678.00;5010966;28;20286;-83
2022/07/10 04:49:40;;;;;;;7.65;7.00;;;;;;;16.40;100.00;63690.00;5011170;28;20203;-83
2022/07/10 04:52:07;;;;;;;8.40;7.60;;;;;;;16.77;100.00;63729.06;5017340;28;20234;-83
2022/07/10 04:54:34;;;;;;;7.03;6.53;;;;;;;16.66;100.00;63719.63;5030582;28;20229;-82
2022/07/10 04:57:01;;;;;;;6.85;6.35;;;;;;;16.70;100.00;63721.75;5030805;28;20217;-83
2022/07/10 04:59:28;;;;;;;6.80;6.32;;;;;;;17.01;100.00;63761.22;5030531;28;20198;-82
2022/07/10 05:01:57;;;;;;;9.43;7.47;;;;;;;17.02;100.00;63757.09;5028885;28;20222;-82
2022/07/10 05:04:23;;;;;;;7.15;6.55;;;;;;;17.06;100.00;63761.28;5026798;28;20198;-82
2022/07/10 05:06:50;;;;;;;7.53;6.82;;;;;;;16.99;100.00;63751.94;5029947;28;20241;-83
2022/07/10 05:09:19;;;;;;;10.75;6.65;;;;;;;17.12;100.00;63764.94;5029927;28;20261;-82
2022/07/10 05:11:49;;;;;;;6.95;6.30;;;;;;;17.24;100.00;63777.94;5033398;28;20217;-85
2022/07/10 05:14:16;;;;;;;7.97;7.28;;;;;;;17.30;100.00;63786.78;5029628;28;20226;-84
2022/07/10 05:16:44;;;;;;;7.57;6.20;;;;;;;17.15;100.00;63771.16;5027322;28;20218;-87
2022/07/10 05:19:12;;;;;;;5.90;5.40;;;;;;;16.98;100.00;63752.94;5029213;28;20225;-86
2022/07/10 05:21:39;;;;;;;7.38;5.72;;;;;;;17.16;100.00;63766.53;5031481;28;20225;-86
2022/07/10 05:24:07;;;;;;;6.95;6.45;;;;;;;17.06;100.00;63763.84;5032096;28;20439;-87
2022/07/10 05:26:36;;;;;;;6.53;6.03;;;;;;;16.83;100.00;63745.56;5033427;28;20221;-84
2022/07/10 05:29:04;;;;;;;7.55;6.93;;;;;;;16.94;100.00;63749.31;5034922;28;20210;-85
2022/07/10 05:31:31;;;;;;;7.68;6.03;;;;;;;16.93;100.00;63745.16;5037365;28;20225;-85
2022/07/10 05:33:58;;;;;;;6.90;5.90;;;;;;;17.14;100.00;63767.03;5034258;28;20229;-87
2022/07/10 05:36:28;;;;;;;5.55;5.15;;;;;;;17.08;100.00;63761.28;5037136;28;20277;-86
2022/07/10 05:38:56;;;;;;;6.25;5.72;;;;;;;16.83;100.00;63737.84;5032271;28;20186;-85
2022/07/10 05:41:26;;;;;;;5.18;4.85;;;;;;;16.89;100.00;63744.09;5032332;28;20214;-86
2022/07/10 05:43:54;;;;;;;7.10;6.60;;;;;;;16.87;100.00;63739.44;5035853;28;20198;-85
2022/07/10 05:46:26;;;;;;;6.65;6.03;;;;;;;17.18;100.00;63774.28;5035691;28;20216;-86
2022/07/10 05:49:14;;;;;;;6.35;5.80;;;;;;;17.26;100.00;63782.59;5037597;28;20194;-85
2022/07/10 05:51:44;;;;;;;5.93;5.43;;;;;;;17.21;100.00;63774.84;5037820;28;20241;-86
2022/07/10 05:54:12;;;;;;;6.05;5.65;;;;;;;17.65;100.00;63819.63;5029644;28;20229;-84
2022/07/10 05:56:39;;;;;;;5.45;5.05;;;;;;;17.69;100.00;63826.38;5013027;28;20282;-85
2022/07/10 05:59:06;;;;;;;5.85;5.40;;;;;;;17.74;100.00;63829.50;5010841;28;20187;-86
2022/07/10 06:01:34;;;;;;;7.50;5.70;;;;;;;17.86;100.00;63849.72;5010521;28;20223;-84
2022/07/10 06:04:02;;;;;;;7.07;6.45;;;;;;;17.50;100.00;63804.00;5022640;28;20195;-85
2022/07/10 06:06:29;;;;;;;6.30;5.70;;;;;;;17.59;100.00;63811.31;5031557;28;20225;-85
2022/07/10 06:08:59;;;;;;;5.80;5.40;;;;;;;17.84;100.00;63845.09;5030990;28;20210;-86
2022/07/10 06:11:26;;;;;;;6.20;5.63;;;;;;;18.32;99.84;63889.41;5031810;28;20550;-86
2022/07/10 06:13:53;;;;;;;6.20;5.60;;;;;;;17.84;98.86;63839.94;5024173;28;20229;-85
2022/07/10 06:16:28;;;;;;;6.10;5.63;;;;;;;18.21;99.35;63878.47;5034037;28;20211;-82
2022/07/10 06:18:58;;;;;;;6.15;5.75;;;;;;;17.83;99.81;63838.88;5037774;28;20196;-82
2022/07/10 06:21:30;;;;;;;6.43;5.78;;;;;;;17.85;100.00;63843.53;5037136;28;20217;-82
2022/07/10 06:24:06;;;;;;;5.68;5.10;;;;;;;17.73;100.00;63833.63;5036677;28;20222;-83
2022/07/10 06:26:41;;;;;;;5.40;5.00;;;;;;;18.00;99.04;63858.66;5037643;28;20209;-82
2022/07/10 06:29:14;;;;;;;4.90;4.50;;;;;;;17.78;98.05;63835.72;5037961;28;20186;-82
2022/07/10 06:31:51;;;;;;;5.85;5.43;;;;;;;17.62;99.19;63824.22;5033936;28;20244;-83
2022/07/10 06:34:26;;;;;;;5.45;5.15;;;;;;;17.73;97.51;63833.09;5032804;28;20224;-81
2022/07/10 06:36:53;;;;;;;4.47;4.13;;;;;;;17.70;96.97;63829.97;5027221;28;20222;-81
2022/07/10 06:39:21;;;;;;;7.70;4.75;;;;;;;17.78;96.29;63836.25;5035511;28;20194;-82
2022/07/10 06:41:53;;;;;;;4.80;4.38;;;;;;;17.95;95.39;63856.00;5034339;28;20285;-82
2022/07/10 06:44:24;;;;;;;4.90;4.50;;;;;;;18.00;94.18;63861.75;5035466;28;20245;-81
2022/07/10 06:49:32;;;;;;;4.47;4.18;;;;;;;18.12;93.07;63871.16;5035691;28;20212;-82
2022/07/10 06:52:01;;;;;;;5.18;4.45;;;;;;;18.44;90.86;63907.09;5036338;28;20222;-83
2022/07/10 06:54:33;;;;;;;4.25;4.05;;;;;;;18.49;91.75;63907.13;5037105;28;20226;-82
2022/07/10 06:57:03;;;;;;;3.72;3.53;;;;;;;18.70;88.69;63928.50;5032394;28;20538;-78
2022/07/10 06:59:30;;;;;;;3.60;3.42;;;;;;;18.65;88.20;63926.41;5033525;28;20249;-78
2022/07/10 07:01:59;;;;;;;4.30;4.10;;;;;;;18.64;90.14;63927.41;5032292;28;20218;-79
2022/07/10 07:04:27;;;;;;;3.85;3.65;;;;;;;18.63;89.23;63924.31;5028565;28;20208;-79
2022/07/10 07:07:00;;;;;;;4.97;4.68;;;;;;;18.87;88.69;63951.38;5025119;28;20544;-81
2022/07/10 07:09:30;;;;;;;3.78;3.53;;;;;;;18.84;88.18;63943.63;5032655;28;20197;-80
2022/07/10 07:12:01;;;;;;;4.25;3.95;;;;;;;19.08;87.35;63968.63;5032296;28;20301;-79
2022/07/10 07:14:33;;;;;;;3.92;3.38;;;;;;;18.86;87.97;63950.34;5027987;28;20242;-80
2022/07/10 07:17:05;;;;;;;3.60;3.40;;;;;;;18.95;88.48;63960.25;5025368;28;20218;-80
2022/07/10 07:23:09;;;;;;;4.13;3.80;;;;;;;19.28;86.12;63989.47;5031954;28;20187;-80
2022/07/10 07:25:05;;;;;;;5.93;3.92;;;;;;;19.76;82.46;64038.53;5032392;28;20262;-79
2022/07/10 07:27:34;;;;;;;4.60;4.30;;;;;;;19.29;83.84;63993.09;5026721;28;20199;-79
2022/07/10 07:30:10;;;;;;;4.00;3.70;;;;;;;19.48;85.09;64015.53;5010987;28;20270;-80
2022/07/10 07:32:38;;;;;;;4.15;3.78;;;;;;;19.41;83.37;63999.97;5016160;28;20198;-78
2022/07/10 07:35:06;;;;;;;4.10;3.55;;;;;;;19.65;85.07;64030.16;5024326;28;20252;-80
2022/07/10 07:37:40;;;;;;;4.03;3.72;;;;;;;19.59;83.16;64025.97;5029243;28;20198;-80
2022/07/10 07:40:19;;;;;;;5.43;4.20;;;;;;;19.16;84.48;63979.56;5013820;28;20215;-80
2022/07/10 07:42:55;;;;;;;3.95;3.65;;;;;;;19.52;83.61;64016.59;5020365;28;20411;-79
2022/07/10 07:45:24;;;;;;;3.95;3.75;;;;;;;19.68;82.77;64025.00;5027255;28;20201;-79
2022/07/10 07:47:53;;;;;;;3.80;3.60;;;;;;;19.41;84.45;64005.63;5026485;28;20221;-80
2022/07/10 07:50:21;;;;;;;3.85;3.65;;;;;;;19.43;86.54;64012.88;5029779;28;20205;-77
2022/07/10 07:52:49;;;;;;;4.03;3.58;;;;;;;19.50;83.97;64012.44;5028345;28;20209;-78
2022/07/10 07:55:17;;;;;;;3.53;3.33;;;;;;;19.72;81.65;64032.28;5025918;28;20556;-77
2022/07/10 07:57:45;;;;;;;4.45;3.38;;;;;;;19.70;81.47;64032.25;5010345;28;20391;-78
2022/07/10 08:00:17;;;;;;;4.15;3.88;;;;;;;19.73;84.18;64040.56;5021895;28;20229;-79
2022/07/10 08:02:44;;;;;;;4.10;3.78;;;;;;;20.05;75.37;64074.47;5027056;28;20206;-76
2022/07/10 08:05:11;;;;;;;2.90;2.80;;;;;;;20.29;74.75;64096.94;5030956;28;20236;-80
2022/07/10 08:07:40;;;;;;;3.67;3.38;;;;;;;19.91;75.91;64056.75;5030407;28;20202;-82
2022/07/10 08:10:10;;;;;;;3.88;3.67;;;;;;;20.34;75.64;64099.06;5025678;28;20202;-81
2022/07/10 08:12:38;;;;;;;4.68;3.80;;;;;;;20.37;76.14;64107.34;5024352;28;20252;-84
2022/07/10 08:15:07;;;;;;;3.63;3.40;;;;;;;20.54;74.70;64122.50;5040933;28;20225;-82
2022/07/10 08:17:37;;;;;;;4.25;3.10;;;;;;;20.68;71.56;64140.25;5030277;28;20248;-81
2022/07/10 08:20:05;;;;;;;3.05;2.90;;;;;;;20.23;68.80;64088.09;5029744;28;20208;-80
2022/07/10 08:22:32;;;;;;;3.85;3.58;;;;;;;20.57;68.18;64126.16;5032150;28;20210;-80
2022/07/10 08:24:59;;;;;;;3.17;3.03;;;;;;;20.22;70.56;64091.72;5031517;28;20217;-80
2022/07/10 08:27:26;;;;;;;4.03;3.83;;;;;;;20.00;72.40;64069.25;5030875;28;20404;-80
2022/07/10 08:29:53;;;;;;;10.38;3.03;;;;;;;20.23;73.74;64090.16;5030304;28;20202;-81
2022/07/10 08:32:20;;;;;;;4.00;3.70;;;;;;;20.30;73.02;64094.88;5030526;28;20238;-80
2022/07/10 08:34:49;;;;;;;3.70;3.45;;;;;;;20.76;71.62;64142.38;5036206;28;20233;-80
2022/07/10 08:37:16;;;;;;;5.80;3.35;;;;;;;20.91;70.18;64158.56;5032600;28;20229;-80
2022/07/10 08:39:43;;;;;;;3.25;3.05;;;;;;;20.96;69.56;64174.13;5029311;28;20253;-83
2022/07/10 08:42:11;;;;;;;4.05;3.78;;;;;;;21.46;63.89;64218.06;5029987;28;20447;-81
2022/07/10 08:44:39;;;;;;;4.15;3.13;;;;;;;21.15;64.40;64188.81;5030237;28;20205;-82
2022/07/10 08:47:06;;;;;;;3.92;3.13;;;;;;;21.66;63.06;64241.56;5024778;28;20546;-83
2022/07/10 08:49:35;;;;;;;3.67;3.33;;;;;;;22.00;58.31;64277.13;5031984;28;20225;-82
2022/07/10 08:52:07;;;;;;;2.95;2.80;;;;;;;22.12;57.06;64286.53;5031619;28;20226;-80
2022/07/10 08:54:43;;;;;;;2.60;2.50;;;;;;;22.28;53.77;64305.84;5029026;28;20256;-81
2022/07/10 08:57:11;;;;;;;2.97;2.75;;;;;;;22.31;53.60;64306.91;5018676;28;20257;-81
2022/07/10 08:59:38;;;;;;;3.45;2.92;;;;;;;21.51;56.79;64223.28;5029750;28;20222;-83
2022/07/10 09:02:05;;;;;;;2.85;2.75;;;;;;;21.68;56.51;64243.66;5032810;28;20217;-81
2022/07/10 09:04:32;;;;;;;3.67;3.42;;;;;;;21.75;56.76;64246.31;5030716;28;20194;-82
2022/07/10 09:07:00;;;;;;;3.00;2.65;;;;;;;21.50;54.32;64222.75;5026880;28;20229;-81
2022/07/10 09:09:28;;;;;;;3.17;2.88;;;;;;;21.14;57.39;64187.75;5030227;28;20225;-80
2022/07/10 09:11:59;;;;;;;3.13;2.92;;;;;;;21.19;58.21;64190.38;5028891;28;20285;-79
2022/07/10 09:14:28;;;;;;;3.58;2.70;;;;;;;21.41;59.33;64213.38;5028823;28;20229;-81
2022/07/10 09:16:55;;;;;;;3.58;3.38;;;;;;;21.54;57.16;64223.84;5029506;28;20229;-79
2022/07/10 09:19:24;;;;;;;3.05;2.92;;;;;;;21.74;58.31;64249.91;5028997;28;20198;-80
2022/07/10 09:21:52;;;;;;;5.28;3.25;;;;;;;22.09;55.48;64281.31;5027211;28;20530;-79
2022/07/10 09:24:20;;;;;;;3.33;3.05;;;;;;;22.27;57.06;64299.59;5026208;28;20250;-79
2022/07/10 09:27:03;;;;;;;3.80;3.50;;;;;;;21.88;56.48;64261.44;5025821;28;20218;-82
2022/07/10 09:29:30;;;;;;;3.40;3.20;;;;;;;21.60;58.14;64235.81;5025523;28;20202;-77
2022/07/10 09:31:58;;;;;;;3.70;3.25;;;;;;;21.47;58.47;64213.94;5031802;28;20226;-81
2022/07/10 09:34:39;;;;;;;3.60;3.40;;;;;;;21.36;59.62;64205.56;5030698;28;20294;-81
2022/07/10 09:37:19;;;;;;;2.92;2.72;;;;;;;21.55;58.49;64225.41;5030245;28;20229;-82
2022/07/10 09:39:54;;;;;;;3.42;3.17;;;;;;;21.84;56.92;64260.38;5028367;28;20208;-79
2022/07/10 09:42:33;;;;;;;4.78;3.22;;;;;;;21.95;58.00;64268.78;5027428;28;20221;-79
2022/07/10 09:45:16;;;;;;;3.65;3.38;;;;;;;22.24;56.41;64299.06;5028997;28;20297;-81
2022/07/10 09:47:45;;;;;;;3.50;3.17;;;;;;;22.05;54.12;64276.63;5021819;28;20207;-80
2022/07/10 09:50:22;;;;;;;3.40;3.10;;;;;;;22.70;54.31;64352.38;5026764;28;20198;-79
2022/07/10 09:52:51;;;;;;;5.93;3.35;;;;;;;23.22;51.86;64401.56;5024319;28;20217;-82
2022/07/10 09:55:21;;;;;;;3.65;2.55;;;;;;;22.85;50.83;64365.97;5027271;28;20248;-80
2022/07/10 09:57:55;;;;;;;3.08;2.97;;;;;;;22.61;54.03;64337.75;5027997;28;20209;-80
2022/07/10 10:00:25;;;;;;;3.33;3.13;;;;;;;22.59;55.63;64338.28;5025039;28;20197;-81
2022/07/10 10:02:58;;;;;;;3.63;3.30;;;;;;;22.94;53.28;64369.66;5029300;28;20202;-82
2022/07/10 10:05:33;;;;;;;2.58;2.40;;;;;;;23.11;51.13;64392.13;5026842;28;20554;-81
2022/07/10 10:08:03;;;;;;;3.28;3.08;;;;;;;22.99;52.64;64372.28;5025272;28;20279;-81
2022/07/10 10:10:33;;;;;;;3.60;3.38;;;;;;;22.89;54.10;64369.63;5024975;28;20260;-79
2022/07/10 10:13:04;;;;;;;2.90;2.70;;;;;;;22.55;52.95;64328.91;5020765;28;20490;-80
2022/07/10 10:15:32;;;;;;;3.25;2.95;;;;;;;22.68;53.07;64345.06;5018888;28;20233;-81
2022/07/10 10:18:00;;;;;;;3.10;2.83;;;;;;;22.75;53.03;64355.53;5023118;28;20211;-80
2022/07/10 10:20:37;;;;;;;3.17;2.90;;;;;;;23.08;54.04;64386.38;5024876;28;20273;-81
2022/07/10 10:23:05;;;;;;;3.00;2.80;;;;;;;23.30;52.47;64409.94;5024399;28;20228;-81
2022/07/10 10:25:34;;;;;;;3.00;2.90;;;;;;;23.05;52.66;64383.25;5024348;28;20210;-80
2022/07/10 10:28:06;;;;;;;2.83;2.72;;;;;;;23.50;51.21;64432.94;5025312;28;20220;-81
2022/07/10 10:30:34;;;;;;;3.67;3.03;;;;;;;23.39;50.41;64421.97;5024791;28;20214;-80
2022/07/10 10:33:02;;;;;;;3.22;3.13;;;;;;;23.68;50.84;64454.38;5024827;28;20209;-81
2022/07/10 10:35:46;;;;;;;4.53;2.65;;;;;;;23.94;49.53;64474.31;5020180;28;20236;-80
2022/07/10 10:38:13;;;;;;;3.05;2.85;;;;;;;23.58;50.88;64441.84;5022978;28;20399;-78
2022/07/10 10:40:40;;;;;;;2.97;2.88;;;;;;;22.91;51.01;64369.13;5023042;28;20418;-78
2022/07/10 10:43:20;;;;;;;3.45;3.05;;;;;;;23.22;52.80;64403.63;5024720;28;20229;-80
2022/07/10 10:45:48;;;;;;;4.10;2.70;;;;;;;23.40;52.15;64423.00;5024404;28;20529;-81
2022/07/10 10:48:17;;;;;;;2.97;2.67;;;;;;;23.17;51.83;64398.41;5024634;28;20206;-79
2022/07/10 10:50:48;;;;;;;2.50;2.22;;;;;;;23.11;53.80;64390.03;5024027;28;20229;-80
2022/07/10 10:53:17;;;;;;;4.95;2.50;;;;;;;23.06;52.92;64390.00;5023974;28;20404;-79
2022/07/10 10:56:20;;;;;;;2.72;2.63;;;;;;;22.72;52.58;64347.19;5024322;28;20344;-79
2022/07/10 10:58:49;;;;;;;2.60;2.40;;;;;;;23.24;50.93;64400.53;5022235;28;20194;-80
2022/07/10 11:01:32;;;;;;;4.80;3.17;;;;;;;23.37;50.85;64422.47;5025336;28;20221;-80
2022/07/10 11:04:17;;;;;;;3.55;2.60;;;;;;;23.04;51.61;64385.31;5023668;28;20193;-79
2022/07/10 11:06:46;;;;;;;2.35;2.25;;;;;;;23.20;50.14;64404.66;5022823;28;20403;-79
2022/07/10 11:09:31;;;;;;;5.28;2.67;;;;;;;23.40;50.28;64414.69;5025390;28;20216;-81
2022/07/10 11:12:03;;;;;;;2.50;2.40;;;;;;;23.70;48.52;64451.78;5026714;28;20222;-80
2022/07/10 11:14:34;;;;;;;2.63;2.40;;;;;;;23.95;48.50;64477.44;5027577;28;20209;-81
2022/07/10 11:17:01;;;;;;;4.25;2.30;;;;;;;24.15;47.81;64495.25;5026285;28;20292;-80
2022/07/10 11:19:34;;;;;;;3.10;2.78;;;;;;;24.23;47.79;64504.13;5023709;28;20241;-80
2022/07/10 11:22:21;;;;;;;4.70;2.70;;;;;;;23.54;49.85;64435.03;5022796;28;20432;-80
2022/07/10 11:25:00;;;;;;;2.70;2.55;;;;;;;23.94;47.50;64476.91;5025381;28;20186;-80
2022/07/10 11:27:43;;;;;;;3.60;2.60;;;;;;;23.93;47.77;64477.94;5024277;28;20225;-79
2022/07/10 11:30:11;;;;;;;2.47;2.38;;;;;;;23.49;48.92;64426.69;5023315;28;20194;-82
2022/07/10 11:32:39;;;;;;;2.33;2.22;;;;;;;23.91;47.09;64476.38;5024469;28;20206;-82
2022/07/10 11:35:08;;;;;;;2.85;2.65;;;;;;;24.24;46.00;64507.81;5025088;28;20245;-82
2022/07/10 11:37:35;;;;;;;2.42;2.33;;;;;;;24.58;45.76;64542.88;5024451;28;20256;-82
2022/07/10 11:40:11;;;;;;;2.53;2.42;;;;;;;24.21;45.52;64506.75;5025207;28;20221;-79
2022/07/10 11:42:58;;;;;;;2.78;2.67;;;;;;;24.47;46.72;64534.47;5028196;28;20204;-80
2022/07/10 11:45:32;;;;;;;2.42;2.33;;;;;;;24.57;46.49;64549.63;5028522;28;20222;-78